sensor_id;sensor_type;location;lat;lon;timestamp;P1;durP1;ratioP1;P2;durP2;ratioP2
12986;SDS011;58897;51.960;5.582;2024-03-29T00:01:04;0.90;;;0.60;;
12986;SDS011;58897;51.960;5.582;2024-03-29T00:03:30;2.00;;;1.02;;
12986;SDS011;58897;51.960;5.582;2024-03-29T00:05:55;2.03;;;1.05;;
12986;SDS011;58897;51.960;5.582;2024-03-29T00:08:21;1.88;;;1.20;;
12986;SDS011;58897;51.960;5.582;2024-03-29T00:10:47;1.38;;;0.80;;
12986;SDS011;58897;51.960;5.582;2024-03-29T00:13:13;3.35;;;1.48;;
12986;SDS011;58897;51.960;5.582;2024-03-29T00:15:39;2.40;;;1.10;;
12986;SDS011;58897;51.960;5.582;2024-03-29T00:18:07;0.65;;;0.57;;
12986;SDS011;58897;51.960;5.582;2024-03-29T00:20:33;1.48;;;1.05;;
12986;SDS011;58897;51.960;5.582;2024-03-29T00:22:59;1.95;;;0.70;;
12986;SDS011;58897;51.960;5.582;2024-03-29T00:25:24;2.22;;;1.15;;
12986;SDS011;58897;51.960;5.582;2024-03-29T00:27:50;5.97;;;1.58;;
12986;SDS011;58897;51.960;5.582;2024-03-29T00:30:16;2.67;;;0.73;;
12986;SDS011;58897;51.960;5.582;2024-03-29T00:32:42;4.28;;;0.88;;
12986;SDS011;58897;51.960;5.582;2024-03-29T00:35:07;2.92;;;1.08;;
12986;SDS011;58897;51.960;5.582;2024-03-29T00:37:33;2.08;;;1.08;;
12986;SDS011;58897;51.960;5.582;2024-03-29T00:39:59;1.83;;;0.93;;
12986;SDS011;58897;51.960;5.582;2024-03-29T00:42:25;2.90;;;0.60;;
12986;SDS011;58897;51.960;5.582;2024-03-29T00:44:51;1.48;;;0.90;;
12986;SDS011;58897;51.960;5.582;2024-03-29T00:47:16;3.47;;;1.70;;
12986;SDS011;58897;51.960;5.582;2024-03-29T00:49:42;1.05;;;0.70;;
12986;SDS011;58897;51.960;5.582;2024-03-29T00:52:08;8.50;;;0.88;;
12986;SDS011;58897;51.960;5.582;2024-03-29T00:54:34;1.48;;;0.88;;
12986;SDS011;58897;51.960;5.582;2024-03-29T00:56:59;4.38;;;1.00;;
12986;SDS011;58897;51.960;5.582;2024-03-29T00:59:25;1.52;;;1.13;;
12986;SDS011;58897;51.960;5.582;2024-03-29T01:01:51;4.10;;;1.10;;
12986;SDS011;58897;51.960;5.582;2024-03-29T01:04:17;1.25;;;0.80;;
12986;SDS011;58897;51.960;5.582;2024-03-29T01:06:42;1.77;;;0.90;;
12986;SDS011;58897;51.960;5.582;2024-03-29T01:09:08;1.00;;;0.57;;
12986;SDS011;58897;51.960;5.582;2024-03-29T01:11:38;2.83;;;1.00;;
12986;SDS011;58897;51.960;5.582;2024-03-29T01:16:31;1.98;;;1.20;;
12986;SDS011;58897;51.960;5.582;2024-03-29T01:18:57;2.03;;;1.25;;
12986;SDS011;58897;51.960;5.582;2024-03-29T01:21:23;1.65;;;0.90;;
12986;SDS011;58897;51.960;5.582;2024-03-29T01:23:49;2.22;;;0.95;;
12986;SDS011;58897;51.960;5.582;2024-03-29T01:26:15;10.30;;;2.80;;
12986;SDS011;58897;51.960;5.582;2024-03-29T01:28:42;2.13;;;0.98;;
12986;SDS011;58897;51.960;5.582;2024-03-29T01:31:09;2.08;;;1.13;;
12986;SDS011;58897;51.960;5.582;2024-03-29T01:33:35;0.50;;;0.40;;
12986;SDS011;58897;51.960;5.582;2024-03-29T01:36:03;1.00;;;0.75;;
12986;SDS011;58897;51.960;5.582;2024-03-29T01:38:30;2.00;;;1.00;;
12986;SDS011;58897;51.960;5.582;2024-03-29T01:40:56;1.05;;;0.82;;
12986;SDS011;58897;51.960;5.582;2024-03-29T01:43:22;0.85;;;0.55;;
12986;SDS011;58897;51.960;5.582;2024-03-29T01:45:49;3.38;;;1.27;;
12986;SDS011;58897;51.960;5.582;2024-03-29T01:48:17;4.00;;;1.10;;
12986;SDS011;58897;51.960;5.582;2024-03-29T01:50:43;2.08;;;1.02;;
12986;SDS011;58897;51.960;5.582;2024-03-29T01:53:10;1.55;;;1.02;;
12986;SDS011;58897;51.960;5.582;2024-03-29T01:55:37;2.03;;;1.08;;
12986;SDS011;58897;51.960;5.582;2024-03-29T01:58:03;1.92;;;1.10;;
12986;SDS011;58897;51.960;5.582;2024-03-29T02:02:56;3.17;;;0.88;;
12986;SDS011;58897;51.960;5.582;2024-03-29T02:05:23;1.20;;;0.73;;
12986;SDS011;58897;51.960;5.582;2024-03-29T02:07:51;2.22;;;0.90;;
12986;SDS011;58897;51.960;5.582;2024-03-29T02:10:17;1.27;;;0.85;;
12986;SDS011;58897;51.960;5.582;2024-03-29T02:12:42;0.68;;;0.38;;
12986;SDS011;58897;51.960;5.582;2024-03-29T02:15:08;1.83;;;1.05;;
12986;SDS011;58897;51.960;5.582;2024-03-29T02:17:39;0.73;;;0.60;;
12986;SDS011;58897;51.960;5.582;2024-03-29T02:20:05;2.80;;;1.05;;
12986;SDS011;58897;51.960;5.582;2024-03-29T02:22:31;1.00;;;0.73;;
12986;SDS011;58897;51.960;5.582;2024-03-29T02:25:02;1.17;;;0.70;;
12986;SDS011;58897;51.960;5.582;2024-03-29T02:27:28;3.30;;;0.77;;
12986;SDS011;58897;51.960;5.582;2024-03-29T02:29:54;2.53;;;0.73;;
12986;SDS011;58897;51.960;5.582;2024-03-29T02:32:19;1.42;;;0.80;;
12986;SDS011;58897;51.960;5.582;2024-03-29T02:34:45;3.08;;;0.70;;
12986;SDS011;58897;51.960;5.582;2024-03-29T02:37:11;1.77;;;0.55;;
12986;SDS011;58897;51.960;5.582;2024-03-29T02:39:36;2.08;;;1.30;;
12986;SDS011;58897;51.960;5.582;2024-03-29T02:42:02;1.20;;;0.93;;
12986;SDS011;58897;51.960;5.582;2024-03-29T02:44:28;1.15;;;0.70;;
12986;SDS011;58897;51.960;5.582;2024-03-29T02:46:54;1.85;;;0.75;;
12986;SDS011;58897;51.960;5.582;2024-03-29T02:49:20;2.25;;;1.10;;
12986;SDS011;58897;51.960;5.582;2024-03-29T02:51:45;2.42;;;1.02;;
12986;SDS011;58897;51.960;5.582;2024-03-29T02:54:11;2.05;;;1.42;;
12986;SDS011;58897;51.960;5.582;2024-03-29T02:56:37;1.95;;;1.00;;
12986;SDS011;58897;51.960;5.582;2024-03-29T02:59:02;3.08;;;1.20;;
12986;SDS011;58897;51.960;5.582;2024-03-29T03:01:28;0.50;;;0.47;;
12986;SDS011;58897;51.960;5.582;2024-03-29T03:03:54;1.63;;;1.05;;
12986;SDS011;58897;51.960;5.582;2024-03-29T03:06:19;1.95;;;1.02;;
12986;SDS011;58897;51.960;5.582;2024-03-29T03:08:45;3.22;;;1.58;;
12986;SDS011;58897;51.960;5.582;2024-03-29T03:13:55;5.15;;;1.10;;
12986;SDS011;58897;51.960;5.582;2024-03-29T03:16:21;1.27;;;0.95;;
12986;SDS011;58897;51.960;5.582;2024-03-29T03:18:47;0.95;;;0.60;;
12986;SDS011;58897;51.960;5.582;2024-03-29T03:21:12;2.85;;;1.23;;
12986;SDS011;58897;51.960;5.582;2024-03-29T03:23:38;5.00;;;0.95;;
12986;SDS011;58897;51.960;5.582;2024-03-29T03:26:04;1.30;;;0.77;;
12986;SDS011;58897;51.960;5.582;2024-03-29T03:28:29;1.35;;;0.60;;
12986;SDS011;58897;51.960;5.582;2024-03-29T03:30:55;2.65;;;1.15;;
12986;SDS011;58897;51.960;5.582;2024-03-29T03:33:21;1.08;;;0.63;;
12986;SDS011;58897;51.960;5.582;2024-03-29T03:35:47;1.58;;;0.85;;
12986;SDS011;58897;51.960;5.582;2024-03-29T03:38:13;2.78;;;1.00;;
12986;SDS011;58897;51.960;5.582;2024-03-29T03:43:05;3.03;;;0.82;;
12986;SDS011;58897;51.960;5.582;2024-03-29T03:45:38;1.08;;;0.73;;
12986;SDS011;58897;51.960;5.582;2024-03-29T03:48:05;1.73;;;1.00;;
12986;SDS011;58897;51.960;5.582;2024-03-29T03:50:35;1.40;;;0.93;;
12986;SDS011;58897;51.960;5.582;2024-03-29T03:53:02;2.75;;;1.48;;
12986;SDS011;58897;51.960;5.582;2024-03-29T03:57:54;1.35;;;1.15;;
12986;SDS011;58897;51.960;5.582;2024-03-29T04:00:20;2.75;;;1.10;;
12986;SDS011;58897;51.960;5.582;2024-03-29T04:02:47;2.40;;;0.93;;
12986;SDS011;58897;51.960;5.582;2024-03-29T04:05:20;1.85;;;0.60;;
12986;SDS011;58897;51.960;5.582;2024-03-29T04:07:46;1.33;;;0.77;;
12986;SDS011;58897;51.960;5.582;2024-03-29T04:10:12;0.85;;;0.57;;
12986;SDS011;58897;51.960;5.582;2024-03-29T04:12:38;1.00;;;0.85;;
12986;SDS011;58897;51.960;5.582;2024-03-29T04:15:04;1.00;;;0.68;;
12986;SDS011;58897;51.960;5.582;2024-03-29T04:17:31;0.57;;;0.57;;
12986;SDS011;58897;51.960;5.582;2024-03-29T04:19:58;0.40;;;0.40;;
12986;SDS011;58897;51.960;5.582;2024-03-29T04:22:24;3.60;;;0.85;;
12986;SDS011;58897;51.960;5.582;2024-03-29T04:24:50;1.55;;;0.95;;
12986;SDS011;58897;51.960;5.582;2024-03-29T04:27:16;1.95;;;0.77;;
12986;SDS011;58897;51.960;5.582;2024-03-29T04:29:42;1.35;;;0.70;;
12986;SDS011;58897;51.960;5.582;2024-03-29T04:32:08;1.58;;;0.93;;
12986;SDS011;58897;51.960;5.582;2024-03-29T04:34:33;0.77;;;0.65;;
12986;SDS011;58897;51.960;5.582;2024-03-29T04:37:00;1.67;;;0.82;;
12986;SDS011;58897;51.960;5.582;2024-03-29T04:39:25;1.38;;;0.85;;
12986;SDS011;58897;51.960;5.582;2024-03-29T04:41:52;1.10;;;0.70;;
12986;SDS011;58897;51.960;5.582;2024-03-29T04:44:27;4.60;;;1.15;;
12986;SDS011;58897;51.960;5.582;2024-03-29T04:46:53;1.60;;;0.75;;
12986;SDS011;58897;51.960;5.582;2024-03-29T04:49:21;3.10;;;1.02;;
12986;SDS011;58897;51.960;5.582;2024-03-29T04:51:54;0.52;;;0.50;;
12986;SDS011;58897;51.960;5.582;2024-03-29T04:54:19;0.93;;;0.60;;
12986;SDS011;58897;51.960;5.582;2024-03-29T04:56:45;1.17;;;0.63;;
12986;SDS011;58897;51.960;5.582;2024-03-29T04:59:11;1.45;;;0.95;;
12986;SDS011;58897;51.960;5.582;2024-03-29T05:01:37;1.35;;;0.77;;
12986;SDS011;58897;51.960;5.582;2024-03-29T05:06:29;1.35;;;1.10;;
12986;SDS011;58897;51.960;5.582;2024-03-29T05:11:21;1.70;;;0.90;;
12986;SDS011;58897;51.960;5.582;2024-03-29T05:13:46;2.40;;;1.00;;
12986;SDS011;58897;51.960;5.582;2024-03-29T05:16:12;2.55;;;0.90;;
12986;SDS011;58897;51.960;5.582;2024-03-29T05:18:38;0.55;;;0.45;;
12986;SDS011;58897;51.960;5.582;2024-03-29T05:21:04;1.67;;;1.20;;
12986;SDS011;58897;51.960;5.582;2024-03-29T05:23:30;1.33;;;0.93;;
12986;SDS011;58897;51.960;5.582;2024-03-29T05:25:55;2.22;;;0.98;;
12986;SDS011;58897;51.960;5.582;2024-03-29T05:28:21;0.95;;;0.68;;
12986;SDS011;58897;51.960;5.582;2024-03-29T05:30:47;0.57;;;0.55;;
12986;SDS011;58897;51.960;5.582;2024-03-29T05:33:13;0.95;;;0.65;;
12986;SDS011;58897;51.960;5.582;2024-03-29T05:35:39;1.08;;;0.60;;
12986;SDS011;58897;51.960;5.582;2024-03-29T05:40:31;0.68;;;0.50;;
12986;SDS011;58897;51.960;5.582;2024-03-29T05:42:57;0.82;;;0.75;;
12986;SDS011;58897;51.960;5.582;2024-03-29T05:47:56;2.17;;;1.15;;
12986;SDS011;58897;51.960;5.582;2024-03-29T05:50:23;1.50;;;0.93;;
12986;SDS011;58897;51.960;5.582;2024-03-29T05:52:50;1.83;;;1.00;;
12986;SDS011;58897;51.960;5.582;2024-03-29T05:55:17;1.15;;;0.85;;
12986;SDS011;58897;51.960;5.582;2024-03-29T05:57:43;4.18;;;1.13;;
12986;SDS011;58897;51.960;5.582;2024-03-29T06:00:11;1.35;;;0.70;;
12986;SDS011;58897;51.960;5.582;2024-03-29T06:02:41;2.58;;;1.08;;
12986;SDS011;58897;51.960;5.582;2024-03-29T06:05:10;1.23;;;0.68;;
12986;SDS011;58897;51.960;5.582;2024-03-29T06:07:36;1.20;;;0.80;;
12986;SDS011;58897;51.960;5.582;2024-03-29T06:10:02;1.67;;;0.77;;
12986;SDS011;58897;51.960;5.582;2024-03-29T06:12:33;2.38;;;1.02;;
12986;SDS011;58897;51.960;5.582;2024-03-29T06:15:00;1.25;;;1.05;;
12986;SDS011;58897;51.960;5.582;2024-03-29T06:17:44;1.45;;;0.90;;
12986;SDS011;58897;51.960;5.582;2024-03-29T06:20:11;4.90;;;1.98;;
12986;SDS011;58897;51.960;5.582;2024-03-29T06:22:37;1.40;;;0.77;;
12986;SDS011;58897;51.960;5.582;2024-03-29T06:25:03;3.60;;;1.30;;
12986;SDS011;58897;51.960;5.582;2024-03-29T06:27:32;3.42;;;1.13;;
12986;SDS011;58897;51.960;5.582;2024-03-29T06:29:59;1.30;;;0.90;;
12986;SDS011;58897;51.960;5.582;2024-03-29T06:32:25;2.80;;;1.08;;
12986;SDS011;58897;51.960;5.582;2024-03-29T06:34:51;2.15;;;0.73;;
12986;SDS011;58897;51.960;5.582;2024-03-29T06:37:17;1.90;;;1.00;;
12986;SDS011;58897;51.960;5.582;2024-03-29T06:39:42;2.00;;;1.08;;
12986;SDS011;58897;51.960;5.582;2024-03-29T06:42:08;2.67;;;0.90;;
12986;SDS011;58897;51.960;5.582;2024-03-29T06:44:35;1.45;;;0.88;;
12986;SDS011;58897;51.960;5.582;2024-03-29T06:47:02;0.98;;;0.65;;
12986;SDS011;58897;51.960;5.582;2024-03-29T06:49:27;1.33;;;0.73;;
12986;SDS011;58897;51.960;5.582;2024-03-29T06:51:53;2.83;;;1.13;;
12986;SDS011;58897;51.960;5.582;2024-03-29T06:54:21;1.13;;;0.80;;
12986;SDS011;58897;51.960;5.582;2024-03-29T06:56:51;1.52;;;1.02;;
12986;SDS011;58897;51.960;5.582;2024-03-29T06:59:18;2.53;;;0.80;;
12986;SDS011;58897;51.960;5.582;2024-03-29T07:01:44;1.92;;;1.30;;
12986;SDS011;58897;51.960;5.582;2024-03-29T07:04:10;1.33;;;1.00;;
12986;SDS011;58897;51.960;5.582;2024-03-29T07:09:03;0.68;;;0.55;;
12986;SDS011;58897;51.960;5.582;2024-03-29T07:11:29;1.20;;;0.80;;
12986;SDS011;58897;51.960;5.582;2024-03-29T07:13:55;1.35;;;0.90;;
12986;SDS011;58897;51.960;5.582;2024-03-29T07:16:21;2.65;;;1.23;;
12986;SDS011;58897;51.960;5.582;2024-03-29T07:18:46;1.25;;;0.82;;
12986;SDS011;58897;51.960;5.582;2024-03-29T07:21:12;1.05;;;0.80;;
12986;SDS011;58897;51.960;5.582;2024-03-29T07:23:38;2.50;;;1.13;;
12986;SDS011;58897;51.960;5.582;2024-03-29T07:26:04;1.77;;;0.77;;
12986;SDS011;58897;51.960;5.582;2024-03-29T07:28:30;2.70;;;0.98;;
12986;SDS011;58897;51.960;5.582;2024-03-29T07:30:57;2.35;;;0.90;;
12986;SDS011;58897;51.960;5.582;2024-03-29T07:36:00;1.45;;;0.90;;
12986;SDS011;58897;51.960;5.582;2024-03-29T07:38:26;1.52;;;1.13;;
12986;SDS011;58897;51.960;5.582;2024-03-29T07:40:52;2.25;;;1.40;;
12986;SDS011;58897;51.960;5.582;2024-03-29T07:43:18;1.50;;;1.10;;
12986;SDS011;58897;51.960;5.582;2024-03-29T07:45:44;0.93;;;0.75;;
12986;SDS011;58897;51.960;5.582;2024-03-29T07:48:14;1.58;;;0.98;;
12986;SDS011;58897;51.960;5.582;2024-03-29T07:50:41;3.28;;;1.30;;
12986;SDS011;58897;51.960;5.582;2024-03-29T07:53:07;1.35;;;1.10;;
12986;SDS011;58897;51.960;5.582;2024-03-29T07:55:35;1.25;;;1.00;;
12986;SDS011;58897;51.960;5.582;2024-03-29T07:58:01;1.45;;;0.95;;
12986;SDS011;58897;51.960;5.582;2024-03-29T08:00:28;1.88;;;1.17;;
12986;SDS011;58897;51.960;5.582;2024-03-29T08:02:56;1.02;;;0.80;;
12986;SDS011;58897;51.960;5.582;2024-03-29T08:05:21;1.23;;;0.77;;
12986;SDS011;58897;51.960;5.582;2024-03-29T08:07:47;6.82;;;1.13;;
12986;SDS011;58897;51.960;5.582;2024-03-29T08:10:13;1.55;;;0.80;;
12986;SDS011;58897;51.960;5.582;2024-03-29T08:12:39;1.70;;;1.10;;
12986;SDS011;58897;51.960;5.582;2024-03-29T08:15:04;1.88;;;1.13;;
12986;SDS011;58897;51.960;5.582;2024-03-29T08:19:56;2.00;;;0.93;;
12986;SDS011;58897;51.960;5.582;2024-03-29T08:22:22;1.58;;;0.85;;
12986;SDS011;58897;51.960;5.582;2024-03-29T08:24:47;2.30;;;1.23;;
12986;SDS011;58897;51.960;5.582;2024-03-29T08:27:13;1.80;;;1.02;;
12986;SDS011;58897;51.960;5.582;2024-03-29T08:29:41;3.90;;;0.82;;
12986;SDS011;58897;51.960;5.582;2024-03-29T08:32:07;1.50;;;1.05;;
12986;SDS011;58897;51.960;5.582;2024-03-29T08:34:36;1.77;;;1.02;;
12986;SDS011;58897;51.960;5.582;2024-03-29T08:39:28;3.95;;;1.38;;
12986;SDS011;58897;51.960;5.582;2024-03-29T08:41:55;3.13;;;1.33;;
12986;SDS011;58897;51.960;5.582;2024-03-29T08:44:21;3.67;;;1.30;;
12986;SDS011;58897;51.960;5.582;2024-03-29T08:46:47;2.28;;;1.17;;
12986;SDS011;58897;51.960;5.582;2024-03-29T08:49:12;1.98;;;1.20;;
12986;SDS011;58897;51.960;5.582;2024-03-29T08:51:38;2.50;;;1.00;;
12986;SDS011;58897;51.960;5.582;2024-03-29T08:54:03;2.28;;;1.08;;
12986;SDS011;58897;51.960;5.582;2024-03-29T08:56:33;1.92;;;1.30;;
12986;SDS011;58897;51.960;5.582;2024-03-29T08:59:03;2.17;;;1.38;;
12986;SDS011;58897;51.960;5.582;2024-03-29T09:01:33;1.83;;;1.30;;
12986;SDS011;58897;51.960;5.582;2024-03-29T09:04:01;2.03;;;1.40;;
12986;SDS011;58897;51.960;5.582;2024-03-29T09:06:28;2.60;;;1.02;;
12986;SDS011;58897;51.960;5.582;2024-03-29T09:08:54;2.25;;;1.45;;
12986;SDS011;58897;51.960;5.582;2024-03-29T09:11:20;2.15;;;1.42;;
12986;SDS011;58897;51.960;5.582;2024-03-29T09:13:45;1.33;;;1.00;;
12986;SDS011;58897;51.960;5.582;2024-03-29T09:16:11;1.80;;;1.23;;
12986;SDS011;58897;51.960;5.582;2024-03-29T09:18:37;1.90;;;1.38;;
12986;SDS011;58897;51.960;5.582;2024-03-29T09:21:02;2.25;;;1.50;;
12986;SDS011;58897;51.960;5.582;2024-03-29T09:23:28;2.05;;;1.30;;
12986;SDS011;58897;51.960;5.582;2024-03-29T09:25:57;2.35;;;1.58;;
12986;SDS011;58897;51.960;5.582;2024-03-29T09:28:23;2.63;;;1.63;;
12986;SDS011;58897;51.960;5.582;2024-03-29T09:30:49;1.90;;;1.45;;
12986;SDS011;58897;51.960;5.582;2024-03-29T09:33:16;3.55;;;2.08;;
12986;SDS011;58897;51.960;5.582;2024-03-29T09:35:41;1.25;;;1.00;;
12986;SDS011;58897;51.960;5.582;2024-03-29T09:38:08;2.20;;;1.58;;
12986;SDS011;58897;51.960;5.582;2024-03-29T09:40:34;3.10;;;1.98;;
12986;SDS011;58897;51.960;5.582;2024-03-29T09:43:01;3.80;;;1.58;;
12986;SDS011;58897;51.960;5.582;2024-03-29T09:45:38;1.77;;;1.25;;
12986;SDS011;58897;51.960;5.582;2024-03-29T09:48:04;2.45;;;1.63;;
12986;SDS011;58897;51.960;5.582;2024-03-29T09:50:39;2.50;;;1.70;;
12986;SDS011;58897;51.960;5.582;2024-03-29T09:53:05;4.63;;;1.77;;
12986;SDS011;58897;51.960;5.582;2024-03-29T09:55:33;2.80;;;1.50;;
12986;SDS011;58897;51.960;5.582;2024-03-29T09:58:00;2.60;;;1.70;;
12986;SDS011;58897;51.960;5.582;2024-03-29T10:00:28;2.30;;;1.45;;
12986;SDS011;58897;51.960;5.582;2024-03-29T10:02:55;2.55;;;1.65;;
12986;SDS011;58897;51.960;5.582;2024-03-29T10:05:25;2.20;;;1.48;;
12986;SDS011;58897;51.960;5.582;2024-03-29T10:07:52;2.40;;;1.70;;
12986;SDS011;58897;51.960;5.582;2024-03-29T10:10:19;3.03;;;1.80;;
12986;SDS011;58897;51.960;5.582;2024-03-29T10:12:45;3.05;;;1.48;;
12986;SDS011;58897;51.960;5.582;2024-03-29T10:15:11;2.72;;;1.52;;
12986;SDS011;58897;51.960;5.582;2024-03-29T10:17:45;2.50;;;1.17;;
12986;SDS011;58897;51.960;5.582;2024-03-29T10:20:11;1.85;;;1.30;;
12986;SDS011;58897;51.960;5.582;2024-03-29T10:22:41;2.50;;;1.52;;
12986;SDS011;58897;51.960;5.582;2024-03-29T10:25:09;3.85;;;1.70;;
12986;SDS011;58897;51.960;5.582;2024-03-29T10:27:39;5.38;;;1.55;;
12986;SDS011;58897;51.960;5.582;2024-03-29T10:30:09;2.58;;;1.42;;
12986;SDS011;58897;51.960;5.582;2024-03-29T10:32:39;2.03;;;1.38;;
12986;SDS011;58897;51.960;5.582;2024-03-29T10:35:09;2.15;;;1.45;;
12986;SDS011;58897;51.960;5.582;2024-03-29T10:37:38;3.33;;;1.67;;
12986;SDS011;58897;51.960;5.582;2024-03-29T10:40:08;2.30;;;1.58;;
12986;SDS011;58897;51.960;5.582;2024-03-29T10:42:36;6.25;;;2.70;;
12986;SDS011;58897;51.960;5.582;2024-03-29T10:45:04;2.83;;;2.10;;
12986;SDS011;58897;51.960;5.582;2024-03-29T10:47:31;3.50;;;2.30;;
12986;SDS011;58897;51.960;5.582;2024-03-29T10:49:58;2.83;;;1.98;;
12986;SDS011;58897;51.960;5.582;2024-03-29T10:52:24;2.78;;;1.90;;
12986;SDS011;58897;51.960;5.582;2024-03-29T10:54:52;3.72;;;1.90;;
12986;SDS011;58897;51.960;5.582;2024-03-29T11:05:34;3.58;;;1.77;;
12986;SDS011;58897;51.960;5.582;2024-03-29T11:08:01;3.88;;;2.10;;
12986;SDS011;58897;51.960;5.582;2024-03-29T11:10:29;3.65;;;2.08;;
12986;SDS011;58897;51.960;5.582;2024-03-29T11:13:05;3.72;;;1.92;;
12986;SDS011;58897;51.960;5.582;2024-03-29T11:15:53;2.88;;;2.25;;
12986;SDS011;58897;51.960;5.582;2024-03-29T11:18:19;2.90;;;2.10;;
12986;SDS011;58897;51.960;5.582;2024-03-29T11:20:46;2.22;;;1.55;;
12986;SDS011;58897;51.960;5.582;2024-03-29T11:23:17;2.92;;;2.00;;
12986;SDS011;58897;51.960;5.582;2024-03-29T11:25:45;2.13;;;1.40;;
12986;SDS011;58897;51.960;5.582;2024-03-29T11:28:23;3.35;;;1.77;;
12986;SDS011;58897;51.960;5.582;2024-03-29T11:30:52;2.40;;;1.75;;
12986;SDS011;58897;51.960;5.582;2024-03-29T11:35:54;3.50;;;1.92;;
12986;SDS011;58897;51.960;5.582;2024-03-29T11:38:20;2.17;;;1.45;;
12986;SDS011;58897;51.960;5.582;2024-03-29T11:43:31;1.95;;;1.35;;
12986;SDS011;58897;51.960;5.582;2024-03-29T11:46:00;2.72;;;1.60;;
12986;SDS011;58897;51.960;5.582;2024-03-29T11:48:28;2.90;;;1.52;;
12986;SDS011;58897;51.960;5.582;2024-03-29T11:50:58;1.58;;;1.27;;
12986;SDS011;58897;51.960;5.582;2024-03-29T11:53:25;2.00;;;1.50;;
12986;SDS011;58897;51.960;5.582;2024-03-29T11:55:56;2.15;;;1.48;;
12986;SDS011;58897;51.960;5.582;2024-03-29T11:58:24;2.25;;;1.65;;
12986;SDS011;58897;51.960;5.582;2024-03-29T12:00:51;2.85;;;1.60;;
12986;SDS011;58897;51.960;5.582;2024-03-29T12:03:19;4.18;;;1.70;;
12986;SDS011;58897;51.960;5.582;2024-03-29T12:05:47;2.30;;;1.45;;
12986;SDS011;58897;51.960;5.582;2024-03-29T12:08:14;2.38;;;1.50;;
12986;SDS011;58897;51.960;5.582;2024-03-29T12:10:40;2.10;;;1.40;;
12986;SDS011;58897;51.960;5.582;2024-03-29T12:13:06;3.03;;;1.50;;
12986;SDS011;58897;51.960;5.582;2024-03-29T12:15:33;2.72;;;1.48;;
12986;SDS011;58897;51.960;5.582;2024-03-29T12:18:00;1.77;;;1.40;;
12986;SDS011;58897;51.960;5.582;2024-03-29T12:20:37;4.22;;;1.35;;
12986;SDS011;58897;51.960;5.582;2024-03-29T12:23:07;1.98;;;1.38;;
12986;SDS011;58897;51.960;5.582;2024-03-29T12:25:37;4.80;;;1.50;;
12986;SDS011;58897;51.960;5.582;2024-03-29T12:28:03;3.10;;;1.83;;
12986;SDS011;58897;51.960;5.582;2024-03-29T12:30:30;2.17;;;1.30;;
12986;SDS011;58897;51.960;5.582;2024-03-29T12:32:59;3.72;;;1.33;;
12986;SDS011;58897;51.960;5.582;2024-03-29T12:35:33;2.90;;;1.77;;
12986;SDS011;58897;51.960;5.582;2024-03-29T12:38:00;2.72;;;1.83;;
12986;SDS011;58897;51.960;5.582;2024-03-29T12:40:27;3.97;;;1.95;;
12986;SDS011;58897;51.960;5.582;2024-03-29T12:42:55;2.67;;;1.48;;
12986;SDS011;58897;51.960;5.582;2024-03-29T12:45:22;2.58;;;1.70;;
12986;SDS011;58897;51.960;5.582;2024-03-29T12:47:48;2.88;;;1.50;;
12986;SDS011;58897;51.960;5.582;2024-03-29T12:52:54;2.08;;;1.45;;
12986;SDS011;58897;51.960;5.582;2024-03-29T12:55:22;2.80;;;1.35;;
12986;SDS011;58897;51.960;5.582;2024-03-29T12:57:49;1.90;;;1.20;;
12986;SDS011;58897;51.960;5.582;2024-03-29T13:00:18;4.55;;;1.60;;
12986;SDS011;58897;51.960;5.582;2024-03-29T13:02:47;2.55;;;1.40;;
12986;SDS011;58897;51.960;5.582;2024-03-29T13:05:14;1.75;;;1.33;;
12986;SDS011;58897;51.960;5.582;2024-03-29T13:07:39;2.33;;;1.75;;
12986;SDS011;58897;51.960;5.582;2024-03-29T13:15:03;4.45;;;1.60;;
12986;SDS011;58897;51.960;5.582;2024-03-29T13:17:39;1.83;;;1.27;;
12986;SDS011;58897;51.960;5.582;2024-03-29T13:22:31;4.22;;;1.60;;
12986;SDS011;58897;51.960;5.582;2024-03-29T13:27:22;1.77;;;1.20;;
12986;SDS011;58897;51.960;5.582;2024-03-29T13:32:14;2.75;;;1.33;;
12986;SDS011;58897;51.960;5.582;2024-03-29T13:34:40;2.13;;;1.52;;
12986;SDS011;58897;51.960;5.582;2024-03-29T13:39:31;2.15;;;1.40;;
12986;SDS011;58897;51.960;5.582;2024-03-29T13:44:23;1.80;;;1.20;;
12986;SDS011;58897;51.960;5.582;2024-03-29T13:49:14;1.55;;;0.95;;
12986;SDS011;58897;51.960;5.582;2024-03-29T13:51:45;2.40;;;1.38;;
12986;SDS011;58897;51.960;5.582;2024-03-29T13:56:37;5.72;;;1.58;;
12986;SDS011;58897;51.960;5.582;2024-03-29T14:01:28;3.53;;;1.10;;
12986;SDS011;58897;51.960;5.582;2024-03-29T14:06:19;1.02;;;0.90;;
12986;SDS011;58897;51.960;5.582;2024-03-29T14:08:46;1.55;;;1.08;;
12986;SDS011;58897;51.960;5.582;2024-03-29T14:11:11;1.30;;;0.85;;
12986;SDS011;58897;51.960;5.582;2024-03-29T14:13:39;1.60;;;1.10;;
12986;SDS011;58897;51.960;5.582;2024-03-29T14:16:05;1.55;;;1.10;;
12986;SDS011;58897;51.960;5.582;2024-03-29T14:20:57;1.60;;;1.10;;
12986;SDS011;58897;51.960;5.582;2024-03-29T14:25:50;1.45;;;1.10;;
12986;SDS011;58897;51.960;5.582;2024-03-29T14:28:16;1.35;;;1.00;;
12986;SDS011;58897;51.960;5.582;2024-03-29T14:33:08;2.35;;;1.55;;
12986;SDS011;58897;51.960;5.582;2024-03-29T14:38:00;1.52;;;1.10;;
12986;SDS011;58897;51.960;5.582;2024-03-29T14:42:54;2.45;;;1.42;;
12986;SDS011;58897;51.960;5.582;2024-03-29T14:45:21;2.85;;;1.30;;
12986;SDS011;58897;51.960;5.582;2024-03-29T14:50:12;1.85;;;1.20;;
12986;SDS011;58897;51.960;5.582;2024-03-29T14:55:04;1.92;;;1.30;;
12986;SDS011;58897;51.960;5.582;2024-03-29T14:57:30;2.58;;;1.80;;
12986;SDS011;58897;51.960;5.582;2024-03-29T15:02:22;3.00;;;1.83;;
12986;SDS011;58897;51.960;5.582;2024-03-29T15:07:13;2.08;;;1.38;;
12986;SDS011;58897;51.960;5.582;2024-03-29T15:12:04;2.83;;;1.40;;
12986;SDS011;58897;51.960;5.582;2024-03-29T15:16:56;2.40;;;1.65;;
12986;SDS011;58897;51.960;5.582;2024-03-29T15:21:47;1.70;;;1.20;;
12986;SDS011;58897;51.960;5.582;2024-03-29T15:24:14;1.50;;;1.38;;
12986;SDS011;58897;51.960;5.582;2024-03-29T15:26:41;1.98;;;1.33;;
12986;SDS011;58897;51.960;5.582;2024-03-29T15:31:38;2.53;;;1.40;;
12986;SDS011;58897;51.960;5.582;2024-03-29T15:34:06;1.65;;;1.05;;
12986;SDS011;58897;51.960;5.582;2024-03-29T15:36:33;2.40;;;1.40;;
12986;SDS011;58897;51.960;5.582;2024-03-29T15:39:00;4.90;;;1.40;;
12986;SDS011;58897;51.960;5.582;2024-03-29T15:41:31;1.25;;;1.00;;
12986;SDS011;58897;51.960;5.582;2024-03-29T15:44:00;1.95;;;1.25;;
12986;SDS011;58897;51.960;5.582;2024-03-29T15:46:27;1.55;;;1.10;;
12986;SDS011;58897;51.960;5.582;2024-03-29T15:48:53;3.10;;;1.10;;
12986;SDS011;58897;51.960;5.582;2024-03-29T15:51:19;1.77;;;1.13;;
12986;SDS011;58897;51.960;5.582;2024-03-29T15:53:44;2.15;;;1.13;;
12986;SDS011;58897;51.960;5.582;2024-03-29T15:56:10;2.33;;;1.13;;
12986;SDS011;58897;51.960;5.582;2024-03-29T15:58:36;2.00;;;1.00;;
12986;SDS011;58897;51.960;5.582;2024-03-29T16:01:02;1.30;;;0.88;;
12986;SDS011;58897;51.960;5.582;2024-03-29T16:03:29;1.00;;;0.90;;
12986;SDS011;58897;51.960;5.582;2024-03-29T16:05:56;1.10;;;0.88;;
12986;SDS011;58897;51.960;5.582;2024-03-29T16:08:22;0.50;;;0.50;;
12986;SDS011;58897;51.960;5.582;2024-03-29T16:13:33;1.77;;;1.10;;
12986;SDS011;58897;51.960;5.582;2024-03-29T16:18:29;1.20;;;1.05;;
12986;SDS011;58897;51.960;5.582;2024-03-29T16:20:57;0.85;;;0.77;;
12986;SDS011;58897;51.960;5.582;2024-03-29T16:23:24;1.23;;;0.95;;
12986;SDS011;58897;51.960;5.582;2024-03-29T16:25:49;1.42;;;1.05;;
12986;SDS011;58897;51.960;5.582;2024-03-29T16:28:19;1.30;;;0.90;;
12986;SDS011;58897;51.960;5.582;2024-03-29T16:30:47;1.63;;;1.02;;
12986;SDS011;58897;51.960;5.582;2024-03-29T16:33:17;1.52;;;0.88;;
12986;SDS011;58897;51.960;5.582;2024-03-29T16:35:43;2.40;;;1.60;;
12986;SDS011;58897;51.960;5.582;2024-03-29T16:38:10;2.50;;;1.80;;